Time;durP1;ratioP1;P1;durP2;ratioP2;P2;SDS_P1;SDS_P2;PMS_P1;PMS_P2;Temp;Humidity;BMP_temperature;BMP_pressure;BME280_temperature;BME280_humidity;BME280_pressure;Samples;Min_cycle;Max_cycle;Signal;HPM_P1;HPM_P2
2023/03/12 00:02:05;;;;;;;10.55;1.30;;;;;;;8.51;100.00;99155.66;5052667;28;20044;-71
2023/03/12 00:04:33;;;;;;;6.63;1.52;;;;;;;8.33;100.00;99163.03;5053039;28;20105;-70
2023/03/12 00:06:59;;;;;;;10.20;1.48;;;;;;;8.29;100.00;99142.06;5053168;28;20052;-70
2023/03/12 00:09:24;;;;;;;10.63;1.52;;;;;;;8.40;100.00;99159.41;5052442;28;20415;-70
2023/03/12 00:11:49;;;;;;;8.00;1.80;;;;;;;7.84;100.00;99103.78;5052791;28;20029;-71
2023/03/12 00:14:15;;;;;;;12.02;1.55;;;;;;;8.06;100.00;99120.84;5052162;28;20064;-70
2023/03/12 00:16:40;;;;;;;6.20;1.40;;;;;;;7.96;100.00;99120.31;5052440;28;20033;-70
2023/03/12 00:19:06;;;;;;;11.60;1.33;;;;;;;7.90;100.00;99126.38;5052117;28;20032;-71
2023/03/12 00:21:31;;;;;;;7.85;1.60;;;;;;;8.03;100.00;99172.38;5051201;28;20025;-70
2023/03/12 00:23:56;;;;;;;7.80;1.20;;;;;;;8.09;100.00;99173.88;5051436;28;20102;-71
2023/03/12 00:26:22;;;;;;;6.97;1.35;;;;;;;8.06;100.00;99164.69;5051943;28;20475;-72
2023/03/12 00:28:49;;;;;;;7.47;1.40;;;;;;;7.83;100.00;99116.50;5051765;28;20028;-71
2023/03/12 00:31:30;;;;;;;7.18;1.20;;;;;;;7.77;100.00;99112.47;5051568;28;20400;-69
2023/03/12 00:33:56;;;;;;;12.27;1.50;;;;;;;8.04;100.00;99161.41;5046558;28;20030;-70
2023/03/12 00:36:25;;;;;;;10.80;1.38;;;;;;;7.91;100.00;99127.19;5031949;28;20036;-70
2023/03/12 00:38:51;;;;;;;10.48;1.70;;;;;;;7.74;100.00;99126.91;5031870;28;20029;-70
2023/03/12 00:41:18;;;;;;;10.93;1.70;;;;;;;8.10;100.00;99148.53;5031530;28;20502;-70
2023/03/12 00:43:46;;;;;;;8.13;1.67;;;;;;;7.77;100.00;99120.03;5046762;28;20030;-71
2023/03/12 00:46:11;;;;;;;12.02;1.40;;;;;;;7.74;100.00;99127.72;5031776;28;20411;-70
2023/03/12 00:48:37;;;;;;;9.18;1.60;;;;;;;7.88;100.00;99198.16;5031292;28;20033;-70
2023/03/12 00:51:02;;;;;;;9.85;2.05;;;;;;;7.76;100.00;99173.22;5030942;28;20500;-70
2023/03/12 00:53:27;;;;;;;7.82;1.52;;;;;;;7.83;100.00;99228.66;5031360;28;20029;-70
2023/03/12 00:55:53;;;;;;;11.93;1.70;;;;;;;7.76;100.00;99218.75;5031316;28;20125;-70
2023/03/12 00:58:18;;;;;;;9.90;1.77;;;;;;;7.79;100.00;99218.66;5030072;28;20116;-70
2023/03/12 01:00:44;;;;;;;12.23;1.67;;;;;;;7.70;100.00;99224.00;5031222;28;20028;-70
2023/03/12 01:03:10;;;;;;;15.30;1.88;;;;;;;7.51;100.00;99168.03;5062974;28;20099;-70
2023/03/12 01:05:36;;;;;;;11.43;2.13;;;;;;;7.45;100.00;99169.91;5030874;28;20091;-70
2023/03/12 01:08:03;;;;;;;8.05;1.85;;;;;;;7.43;100.00;99200.28;5039237;28;20487;-69
2023/03/12 01:10:29;;;;;;;10.10;2.05;;;;;;;7.43;100.00;99214.63;5050467;28;20039;-70
2023/03/12 01:12:55;;;;;;;8.93;1.50;;;;;;;7.56;100.00;99302.78;5050558;28;20033;-70
2023/03/12 01:15:21;;;;;;;16.70;2.40;;;;;;;7.39;100.00;99258.59;5051131;28;20032;-70
2023/03/12 01:17:46;;;;;;;10.27;1.73;;;;;;;7.62;100.00;99305.16;5049079;28;20785;-70
2023/03/12 01:20:12;;;;;;;9.30;1.77;;;;;;;7.60;100.00;99268.13;5050625;28;20025;-70
2023/03/12 01:22:37;;;;;;;12.45;1.98;;;;;;;7.55;100.00;99320.50;5049021;28;20507;-72
2023/03/12 01:25:03;;;;;;;12.05;2.33;;;;;;;7.34;100.00;99289.03;5050734;28;20035;-69
2023/03/12 01:27:28;;;;;;;11.93;1.60;;;;;;;7.51;100.00;99309.63;5050165;28;20037;-70
2023/03/12 01:29:54;;;;;;;11.35;1.60;;;;;;;7.10;100.00;99266.09;5051065;28;20086;-70
2023/03/12 01:32:20;;;;;;;10.95;1.60;;;;;;;7.20;100.00;99310.47;5050195;28;20122;-69
2023/03/12 01:34:45;;;;;;;10.45;1.42;;;;;;;7.49;100.00;99341.72;5048949;28;20045;-69
2023/03/12 01:37:11;;;;;;;16.63;1.55;;;;;;;7.32;100.00;99343.88;5050540;28;20029;-70
2023/03/12 01:39:36;;;;;;;10.80;1.90;;;;;;;7.46;100.00;99383.97;5050776;28;20028;-70
2023/03/12 01:42:02;;;;;;;13.65;1.50;;;;;;;7.23;100.00;99333.16;5050568;28;20500;-70
2023/03/12 01:44:28;;;;;;;18.00;2.10;;;;;;;7.09;100.00;99327.63;5050483;28;20064;-70
2023/03/12 01:46:53;;;;;;;25.50;1.90;;;;;;;7.10;100.00;99337.69;5050771;28;20063;-70
2023/03/12 01:49:24;;;;;;;10.35;1.52;;;;;;;7.13;100.00;99355.28;5050453;28;20115;-71
2023/03/12 01:51:57;;;;;;;8.95;1.80;;;;;;;7.31;100.00;99384.34;5049035;28;20120;-70
2023/03/12 01:54:40;;;;;;;9.70;1.58;;;;;;;7.37;100.00;99396.84;5050627;28;20488;-70
2023/03/12 01:57:10;;;;;;;15.00;2.17;;;;;;;7.07;100.00;99355.47;5049166;28;20091;-70
2023/03/12 01:59:40;;;;;;;9.15;1.58;;;;;;;7.00;100.00;99352.22;5050301;28;20116;-69
2023/03/12 02:02:08;;;;;;;11.43;1.50;;;;;;;7.25;100.00;99387.84;5050358;28;20417;-70
2023/03/12 02:04:37;;;;;;;10.90;1.45;;;;;;;7.17;100.00;99411.66;5048695;28;20032;-70
2023/03/12 02:07:11;;;;;;;11.20;1.70;;;;;;;7.33;100.00;99430.66;5048903;28;20465;-70
2023/03/12 02:09:44;;;;;;;9.77;1.60;;;;;;;7.20;100.00;99414.09;5050476;28;20039;-70
2023/03/12 02:12:09;;;;;;;7.72;1.50;;;;;;;7.16;100.00;99418.41;5051762;28;20077;-70
2023/03/12 02:14:36;;;;;;;14.65;1.70;;;;;;;7.19;100.00;99405.69;5054317;28;20410;-70
2023/03/12 02:17:02;;;;;;;16.45;1.60;;;;;;;7.14;100.00;99410.03;5054142;28;20084;-69
2023/03/12 02:19:49;;;;;;;9.13;1.63;;;;;;;7.08;100.00;99404.28;5054494;28;20024;-70
2023/03/12 02:22:14;;;;;;;7.88;1.85;;;;;;;7.18;100.00;99431.00;5054416;28;20025;-70
2023/03/12 02:24:54;;;;;;;7.43;1.50;;;;;;;7.15;100.00;99469.00;5053902;28;20513;-70
2023/03/12 02:27:21;;;;;;;9.25;1.67;;;;;;;7.23;100.00;99450.22;5052625;28;20471;-70
2023/03/12 02:29:46;;;;;;;7.50;1.80;;;;;;;7.13;100.00;99463.94;5052464;28;20037;-70
2023/03/12 02:32:28;;;;;;;8.93;1.70;;;;;;;7.21;100.00;99497.47;5054333;28;20036;-69
2023/03/12 02:34:55;;;;;;;11.63;1.70;;;;;;;6.82;100.00;99430.97;5052592;28;20135;-70
2023/03/12 02:37:21;;;;;;;9.40;2.10;;;;;;;7.10;100.00;99484.25;5052380;28;20036;-70
2023/03/12 02:39:54;;;;;;;8.95;1.88;;;;;;;7.17;100.00;99477.38;5053976;28;20119;-70
2023/03/12 02:42:21;;;;;;;6.88;1.92;;;;;;;7.14;100.00;99508.59;5052139;28;20041;-70
2023/03/12 02:44:47;;;;;;;11.48;2.10;;;;;;;7.06;100.00;99515.50;5053852;28;20040;-70
2023/03/12 02:47:12;;;;;;;12.35;2.10;;;;;;;7.06;100.00;99518.03;5053960;28;20493;-69
2023/03/12 02:49:38;;;;;;;14.95;1.95;;;;;;;7.00;100.00;99519.00;5053066;28;20053;-69
2023/03/12 02:52:03;;;;;;;9.45;1.92;;;;;;;6.87;100.00;99517.56;5037715;28;20041;-70
2023/03/12 02:54:29;;;;;;;10.38;1.88;;;;;;;6.96;100.00;99519.91;5032079;28;20111;-70
2023/03/12 02:56:55;;;;;;;7.78;2.00;;;;;;;6.88;100.00;99526.81;5033494;28;20499;-70
2023/03/12 02:59:25;;;;;;;10.65;2.28;;;;;;;6.91;100.00;99554.53;5031759;28;20096;-70
2023/03/12 03:01:55;;;;;;;8.23;1.73;;;;;;;6.57;100.00;99502.22;5033374;28;20030;-69
2023/03/12 03:04:20;;;;;;;9.43;2.00;;;;;;;6.79;100.00;99543.88;5033035;28;20571;-68
2023/03/12 03:06:47;;;;;;;15.88;2.42;;;;;;;6.85;100.00;99549.59;5033197;28;20029;-70
2023/03/12 03:09:12;;;;;;;10.35;2.20;;;;;;;6.69;100.00;99519.66;5033466;28;20030;-70
2023/03/12 03:11:38;;;;;;;9.75;2.13;;;;;;;6.55;100.00;99494.69;5033194;28;20034;-70
2023/03/12 03:14:05;;;;;;;13.10;1.92;;;;;;;6.93;100.00;99562.13;5033469;28;20411;-69
2023/03/12 03:16:31;;;;;;;8.25;1.80;;;;;;;6.48;100.00;99523.41;5031623;28;20080;-70
2023/03/12 03:18:57;;;;;;;7.03;1.70;;;;;;;6.45;100.00;99498.25;5033558;28;20112;-72
2023/03/12 03:21:23;;;;;;;11.23;2.50;;;;;;;6.51;100.00;99528.41;5032687;28;20388;-70
2023/03/12 03:23:49;;;;;;;10.57;1.77;;;;;;;6.76;100.00;99569.16;5048031;28;20033;-70
2023/03/12 03:26:18;;;;;;;6.90;1.70;;;;;;;6.75;100.00;99582.66;5031826;28;20083;-70
2023/03/12 03:28:43;;;;;;;7.57;2.33;;;;;;;6.78;100.00;99582.59;5048249;28;20480;-69
2023/03/12 03:31:09;;;;;;;7.00;2.13;;;;;;;6.33;100.00;99538.00;5032898;28;20036;-70
2023/03/12 03:33:36;;;;;;;9.02;2.47;;;;;;;6.39;100.00;99563.16;5032808;28;20168;-70
2023/03/12 03:36:04;;;;;;;6.50;2.10;;;;;;;6.58;100.00;99604.88;5039834;28;20025;-70
2023/03/12 03:38:31;;;;;;;10.35;2.47;;;;;;;6.36;100.00;99556.44;5033063;28;20037;-70
2023/03/12 03:40:56;;;;;;;10.90;2.63;;;;;;;6.31;100.00;99557.41;5032867;28;20408;-71
2023/03/12 03:43:22;;;;;;;5.88;2.38;;;;;;;6.71;100.00;99609.69;5043566;28;20017;-70
2023/03/12 03:45:48;;;;;;;7.10;2.40;;;;;;;6.37;100.00;99574.97;5053083;28;20052;-70
2023/03/12 03:48:13;;;;;;;7.00;2.13;;;;;;;6.57;100.00;99621.72;5052526;28;20051;-70
2023/03/12 03:50:40;;;;;;;3.83;2.10;;;;;;;6.27;100.00;99578.50;5050407;28;20049;-70
2023/03/12 03:53:06;;;;;;;11.43;2.60;;;;;;;6.22;100.00;99578.56;5052416;28;20112;-71
2023/03/12 03:55:36;;;;;;;6.35;2.90;;;;;;;6.28;100.00;99601.19;5051524;28;20041;-70
2023/03/12 03:58:01;;;;;;;7.85;2.33;;;;;;;6.48;100.00;99641.22;5051276;28;20041;-71
2023/03/12 04:00:27;;;;;;;8.40;2.45;;;;;;;6.27;100.00;99607.09;5049691;28;20090;-70
2023/03/12 04:02:54;;;;;;;8.88;2.92;;;;;;;6.38;100.00;99653.19;5051794;28;20021;-70
2023/03/12 04:05:20;;;;;;;10.13;2.70;;;;;;;6.36;100.00;99652.38;5051471;28;20115;-72
2023/03/12 04:07:52;;;;;;;5.68;2.40;;;;;;;6.29;100.00;99648.28;5051883;28;20039;-71
2023/03/12 04:10:19;;;;;;;9.57;2.50;;;;;;;6.12;100.00;99630.03;5050968;28;20033;-70
2023/03/12 04:12:45;;;;;;;13.20;3.17;;;;;;;6.28;100.00;99681.94;5051633;28;20037;-70
2023/03/12 04:15:10;;;;;;;11.32;2.50;;;;;;;6.41;100.00;99658.19;5051801;28;20102;-71
2023/03/12 04:17:36;;;;;;;9.68;2.45;;;;;;;6.36;100.00;99670.03;5051420;28;20037;-72
2023/03/12 04:20:04;;;;;;;5.60;2.00;;;;;;;5.99;100.00;99639.50;5051096;28;20091;-72
2023/03/12 04:22:29;;;;;;;7.72;2.35;;;;;;;6.32;100.00;99678.50;5052529;28;20025;-71
2023/03/12 04:24:54;;;;;;;10.07;2.55;;;;;;;5.92;100.00;99627.81;5050238;28;20048;-71
2023/03/12 04:27:20;;;;;;;4.50;1.98;;;;;;;5.83;100.00;99615.38;5049592;28;20033;-73
2023/03/12 04:29:45;;;;;;;8.32;2.60;;;;;;;6.11;100.00;99673.81;5050155;28;20128;-71
2023/03/12 04:32:11;;;;;;;8.00;2.40;;;;;;;6.06;100.00;99671.34;5046141;28;20037;-72
2023/03/12 04:34:36;;;;;;;5.95;2.28;;;;;;;5.78;100.00;99636.44;5039173;28;20039;-71
2023/03/12 04:37:02;;;;;;;9.15;2.97;;;;;;;6.07;100.00;99684.81;5048970;28;20025;-71
2023/03/12 04:39:27;;;;;;;9.57;2.65;;;;;;;6.10;100.00;99697.38;5051148;28;20536;-72
2023/03/12 04:41:53;;;;;;;13.07;2.40;;;;;;;6.18;100.00;99705.66;5049229;28;20037;-71
2023/03/12 04:44:18;;;;;;;11.23;2.95;;;;;;;5.97;100.00;99676.53;5049445;28;20032;-74
2023/03/12 04:46:44;;;;;;;9.55;2.85;;;;;;;6.16;100.00;99716.66;5051935;28;20062;-71
2023/03/12 04:49:09;;;;;;;12.90;2.60;;;;;;;5.79;100.00;99679.28;5050582;28;20405;-72
2023/03/12 04:51:35;;;;;;;9.30;2.30;;;;;;;5.82;100.00;99696.06;5050211;28;20029;-73
2023/03/12 04:54:00;;;;;;;6.78;2.40;;;;;;;6.08;100.00;99755.41;5051737;28;20475;-73
2023/03/12 04:56:26;;;;;;;5.32;2.83;;;;;;;5.91;100.00;99736.31;5051662;28;20037;-72
2023/03/12 04:58:52;;;;;;;4.32;2.22;;;;;;;5.77;100.00;99723.00;5051744;28;20138;-72
2023/03/12 05:01:29;;;;;;;10.80;2.92;;;;;;;5.90;100.00;99739.72;5050031;28;20101;-70
2023/03/12 05:03:55;;;;;;;14.20;6.63;;;;;;;6.09;100.00;99786.53;5051531;28;20029;-73
2023/03/12 05:06:22;;;;;;;20.75;8.45;;;;;;;5.99;100.00;99769.84;5050656;28;20033;-73
2023/03/12 05:08:48;;;;;;;13.25;6.60;;;;;;;5.74;100.00;99733.16;5050797;28;20086;-73
2023/03/12 05:11:14;;;;;;;12.85;3.90;;;;;;;5.86;100.00;99746.47;5051089;28;20040;-72
2023/03/12 05:13:40;;;;;;;10.55;3.15;;;;;;;6.35;100.00;99827.41;5050759;28;20596;-72
2023/03/12 05:16:06;;;;;;;11.88;4.05;;;;;;;7.23;100.00;99793.19;5049820;28;20565;-71
2023/03/12 05:18:32;;;;;;;8.60;3.45;;;;;;;7.75;100.00;99766.06;5051330;28;20076;-72
2023/03/12 05:21:12;;;;;;;6.18;2.75;;;;;;;6.89;100.00;99811.44;5038492;28;20515;-72
2023/03/12 05:23:38;;;;;;;10.23;3.20;;;;;;;8.43;100.00;99810.19;5030650;28;20045;-71
2023/03/12 05:26:05;;;;;;;15.63;3.30;;;;;;;8.74;100.00;99723.31;5029953;28;20108;-72
2023/03/12 05:28:30;;;;;;;8.00;3.53;;;;;;;9.87;100.00;99784.53;5031407;28;20095;-71
2023/03/12 05:30:58;;;;;;;8.48;3.05;;;;;;;10.11;100.00;99728.00;5031568;28;20491;-72
2023/03/12 05:33:25;;;;;;;5.93;3.00;;;;;;;9.09;100.00;99708.91;5031512;28;20029;-71
2023/03/12 05:35:50;;;;;;;9.30;2.80;;;;;;;7.39;100.00;99711.16;5031643;28;20035;-72
2023/03/12 05:38:16;;;;;;;5.68;2.42;;;;;;;6.61;100.00;99675.53;5031693;28;20029;-71
2023/03/12 05:40:41;;;;;;;5.95;2.55;;;;;;;7.07;100.00;99769.88;5029791;28;20483;-72
2023/03/12 05:43:07;;;;;;;9.00;2.50;;;;;;;6.66;100.00;99720.03;5043317;28;20033;-71
2023/03/12 05:45:32;;;;;;;7.90;2.72;;;;;;;7.08;100.00;99795.97;5050591;28;20033;-72
2023/03/12 05:47:58;;;;;;;9.27;2.38;;;;;;;6.78;100.00;99747.63;5050881;28;20037;-73
2023/03/12 05:50:24;;;;;;;7.32;2.80;;;;;;;7.16;100.00;99800.03;5049608;28;20219;-72
2023/03/12 05:52:51;;;;;;;8.52;2.70;;;;;;;7.30;100.00;99817.50;5049363;28;20350;-72
2023/03/12 05:55:16;;;;;;;5.70;2.45;;;;;;;6.98;100.00;99782.66;5050613;28;20079;-71
2023/03/12 05:57:42;;;;;;;5.88;2.08;;;;;;;7.40;100.00;99835.03;5051035;28;20064;-72
2023/03/12 06:00:08;;;;;;;5.97;2.08;;;;;;;7.06;100.00;99783.38;5049352;28;20029;-73
2023/03/12 06:02:34;;;;;;;6.40;2.20;;;;;;;7.38;100.00;99846.84;5048803;28;20494;-71
2023/03/12 06:04:59;;;;;;;7.22;2.60;;;;;;;7.69;100.00;99852.19;5051327;28;20036;-70
2023/03/12 06:07:25;;;;;;;4.35;2.33;;;;;;;7.27;100.00;99812.50;5051062;28;20051;-73
2023/03/12 06:09:50;;;;;;;9.40;2.63;;;;;;;7.64;100.00;99848.91;5049695;28;20033;-73
2023/03/12 06:12:16;;;;;;;6.35;2.42;;;;;;;7.78;100.00;99857.09;5051650;28;20043;-73
2023/03/12 06:14:41;;;;;;;8.07;2.97;;;;;;;7.70;100.00;99848.81;5049805;28;20055;-72
2023/03/12 06:17:07;;;;;;;6.50;2.75;;;;;;;7.82;100.00;99824.09;5051112;28;20368;-73
2023/03/12 06:19:32;;;;;;;7.22;2.60;;;;;;;7.83;100.00;99820.72;5049693;28;20099;-74
2023/03/12 06:21:57;;;;;;;7.03;2.88;;;;;;;8.39;100.00;99859.25;5050964;28;20061;-74
2023/03/12 06:24:23;;;;;;;9.38;3.80;;;;;;;8.51;100.00;99875.03;5051016;28;20029;-74
2023/03/12 06:26:48;;;;;;;6.93;2.97;;;;;;;8.62;100.00;99878.16;5051306;28;20067;-74
2023/03/12 06:29:14;;;;;;;6.53;2.45;;;;;;;7.92;100.00;99857.66;5049952;28;20033;-73
2023/03/12 06:31:40;;;;;;;4.78;2.75;;;;;;;8.07;100.00;99829.50;5049864;28;20384;-73
2023/03/12 06:34:07;;;;;;;5.05;2.95;;;;;;;8.45;100.00;99861.66;5049991;28;20507;-74
2023/03/12 06:36:32;;;;;;;3.08;2.22;;;;;;;8.56;100.00;99832.69;5050832;28;20056;-72
2023/03/12 06:38:58;;;;;;;2.88;2.22;;;;;;;8.52;100.00;99770.28;5051151;28;20040;-74
2023/03/12 06:41:23;;;;;;;2.85;2.10;;;;;;;8.21;100.00;99784.50;5049494;28;20037;-74
2023/03/12 06:43:48;;;;;;;3.78;2.33;;;;;;;8.13;100.00;99699.44;5050562;28;20041;-74
2023/03/12 06:46:17;;;;;;;4.70;2.28;;;;;;;8.36;100.00;99657.53;5049758;28;20028;-73
2023/03/12 06:48:45;;;;;;;6.13;2.80;;;;;;;10.05;100.00;99759.47;5051311;28;20475;-73
2023/03/12 06:51:13;;;;;;;5.97;2.58;;;;;;;9.15;100.00;99707.03;5049223;28;20113;-74
2023/03/12 06:53:38;;;;;;;3.08;1.98;;;;;;;8.46;100.00;99622.69;5036295;28;20076;-73
2023/03/12 06:56:04;;;;;;;4.20;2.38;;;;;;;8.82;100.00;99636.94;5029617;28;20127;-72
2023/03/12 06:58:30;;;;;;;4.63;1.77;;;;;;;8.83;100.00;99570.19;5033941;28;20025;-74
2023/03/12 07:00:56;;;;;;;4.82;2.20;;;;;;;9.75;100.00;99605.50;5034529;28;20473;-74
2023/03/12 07:03:21;;;;;;;3.95;1.80;;;;;;;9.04;100.00;99526.50;5047435;28;20068;-73
2023/03/12 07:05:49;;;;;;;6.18;2.17;;;;;;;9.03;100.00;99534.94;5052700;28;20387;-75
2023/03/12 07:08:15;;;;;;;3.40;2.10;;;;;;;9.38;100.00;99496.72;5053189;28;20025;-74
2023/03/12 07:10:41;;;;;;;2.72;1.70;;;;;;;9.40;100.00;99453.53;5053153;28;20021;-74
2023/03/12 07:13:07;;;;;;;3.47;1.85;;;;;;;9.08;100.00;99406.38;5053002;28;20410;-73
2023/03/12 07:15:33;;;;;;;3.45;2.40;;;;;;;9.77;100.00;99417.63;5054316;28;20104;-75
2023/03/12 07:18:00;;;;;;;2.63;1.80;;;;;;;9.09;100.00;99359.03;5053016;28;20564;-75
2023/03/12 07:20:26;;;;;;;4.63;2.60;;;;;;;9.52;100.00;99326.28;5053143;28;20039;-75
2023/03/12 07:22:51;;;;;;;4.95;2.38;;;;;;;8.96;100.00;99193.81;5054477;28;20119;-75
2023/03/12 07:25:16;;;;;;;3.03;2.15;;;;;;;9.49;100.00;99195.31;5053868;28;20104;-74
2023/03/12 07:27:42;;;;;;;4.95;2.83;;;;;;;9.69;100.00;99207.25;5054250;28;20025;-74
2023/03/12 07:30:08;;;;;;;5.82;2.10;;;;;;;9.54;100.00;99141.88;5053894;28;20033;-74
2023/03/12 07:32:35;;;;;;;4.53;2.10;;;;;;;10.45;100.00;99193.31;5051027;28;20025;-76
2023/03/12 07:35:01;;;;;;;4.38;2.70;;;;;;;9.51;100.00;99136.88;5053752;28;20032;-72
2023/03/12 07:37:26;;;;;;;3.58;2.50;;;;;;;10.07;100.00;99112.69;5052564;28;20501;-73
2023/03/12 07:39:53;;;;;;;4.22;2.33;;;;;;;10.27;100.00;99074.66;5040286;28;20037;-74
2023/03/12 07:42:19;;;;;;;2.88;2.35;;;;;;;9.60;100.00;98938.66;5033770;28;20443;-73
2023/03/12 07:44:44;;;;;;;4.00;3.05;;;;;;;10.27;100.00;98883.34;5045613;28;20082;-74
2023/03/12 07:47:09;;;;;;;2.58;2.13;;;;;;;10.16;100.00;98850.78;5053496;28;20021;-75
2023/03/12 07:49:35;;;;;;;6.00;2.70;;;;;;;9.75;100.00;98855.97;5047678;28;20098;-74
2023/03/12 07:52:01;;;;;;;5.13;2.72;;;;;;;9.83;100.00;98806.56;5052983;28;20029;-74
2023/03/12 07:54:29;;;;;;;3.90;2.40;;;;;;;9.73;100.00;98735.97;5052368;28;20040;-74
2023/03/12 07:56:55;;;;;;;4.60;2.88;;;;;;;10.42;100.00;98736.13;5052535;28;20024;-76
2023/03/12 07:59:22;;;;;;;3.83;2.60;;;;;;;10.32;100.00;98723.91;5053875;28;20056;-77
2023/03/12 08:01:48;;;;;;;4.13;2.15;;;;;;;10.22;100.00;98679.56;5053124;28;20083;-74
2023/03/12 08:04:13;;;;;;;3.75;2.78;;;;;;;10.57;100.00;98611.78;5052811;28;20041;-75
2023/03/12 08:06:41;;;;;;;4.65;2.88;;;;;;;11.22;100.00;97996.28;5049162;28;20602;-74
2023/03/12 08:09:07;;;;;;;4.63;2.20;;;;;;;9.83;100.00;97885.41;5033810;28;20053;-75
2023/03/12 08:11:33;;;;;;;5.18;2.50;;;;;;;10.85;100.00;97824.09;5033257;28;20029;-74
2023/03/12 08:13:58;;;;;;;6.15;3.20;;;;;;;10.75;100.00;97909.44;5032870;28;20029;-74
2023/03/12 08:16:24;;;;;;;4.03;2.20;;;;;;;10.51;100.00;97989.69;5032903;28;20029;-75
2023/03/12 08:18:49;;;;;;;9.15;2.40;;;;;;;10.16;100.00;98000.19;5031802;28;20510;-74
2023/03/12 08:21:15;;;;;;;5.07;2.33;;;;;;;10.80;100.00;98031.94;5032945;28;20037;-74
2023/03/12 08:23:41;;;;;;;8.10;2.92;;;;;;;10.83;100.00;98065.66;5037634;28;20052;-74
2023/03/12 08:26:16;;;;;;;6.55;2.20;;;;;;;10.53;100.00;98213.97;5053259;28;20029;-74
2023/03/12 08:28:42;;;;;;;10.32;3.08;;;;;;;11.24;100.00;98170.75;5052440;28;20033;-73
2023/03/12 08:31:08;;;;;;;11.93;5.10;;;;;;;11.19;100.00;98271.13;5052930;28;20090;-75
2023/03/12 08:33:34;;;;;;;4.78;2.10;;;;;;;10.10;100.00;98314.53;5051223;28;20120;-74
2023/03/12 08:35:59;;;;;;;4.38;1.95;;;;;;;11.19;100.00;98380.50;5052475;28;20518;-74
2023/03/12 08:38:25;;;;;;;4.95;2.00;;;;;;;10.50;100.00;98356.41;5051881;28;20633;-74
2023/03/12 08:40:55;;;;;;;3.40;1.70;;;;;;;11.51;100.00;98371.03;5052669;28;20439;-74
2023/03/12 08:43:22;;;;;;;6.00;2.13;;;;;;;11.50;100.00;98489.81;5052607;28;20032;-75
2023/03/12 08:45:55;;;;;;;3.40;2.55;;;;;;;10.99;100.00;98541.75;5051185;28;20082;-72
2023/03/12 08:48:21;;;;;;;3.90;2.33;;;;;;;11.53;100.00;98578.69;5049763;28;20037;-73
2023/03/12 08:50:46;;;;;;;5.10;2.83;;;;;;;10.94;100.00;98683.56;5050804;28;20056;-72
2023/03/12 08:53:12;;;;;;;3.42;2.20;;;;;;;11.42;100.00;98666.69;5050947;28;20633;-73
2023/03/12 08:55:37;;;;;;;2.45;2.08;;;;;;;12.68;100.00;98748.88;5052220;28;20070;-72
2023/03/12 08:58:03;;;;;;;4.85;2.00;;;;;;;11.41;100.00;98774.47;5051799;28;20465;-73
2023/03/12 09:00:28;;;;;;;2.63;1.83;;;;;;;10.78;100.00;98783.53;5051966;28;20064;-74
2023/03/12 09:02:56;;;;;;;5.07;2.00;;;;;;;10.99;100.00;98861.34;5051523;28;20110;-74
2023/03/12 09:05:28;;;;;;;3.05;1.92;;;;;;;11.42;100.00;98853.28;5052026;28;20025;-74
2023/03/12 09:07:55;;;;;;;4.45;1.60;;;;;;;12.33;100.00;98928.41;5052149;28;20031;-74
2023/03/12 09:10:20;;;;;;;5.72;1.60;;;;;;;11.72;100.00;98948.53;5051595;28;20108;-73
2023/03/12 09:12:46;;;;;;;3.30;1.88;;;;;;;12.05;100.00;98926.44;5050344;28;20120;-70
2023/03/12 09:15:11;;;;;;;2.88;2.20;;;;;;;12.22;100.00;99008.84;5044120;28;20087;-70
2023/03/12 09:17:37;;;;;;;6.07;2.00;;;;;;;11.79;100.00;99005.03;5039680;28;20025;-70
2023/03/12 09:20:07;;;;;;;4.35;2.22;;;;;;;12.33;100.00;99022.69;5047096;28;20134;-70
2023/03/12 09:22:35;;;;;;;3.53;2.50;;;;;;;12.08;100.00;99094.41;5050942;28;20029;-70
2023/03/12 09:25:04;;;;;;;5.82;2.50;;;;;;;12.11;100.00;99080.72;5049331;28;20061;-70
2023/03/12 09:27:34;;;;;;;4.25;1.80;;;;;;;11.98;100.00;99144.16;5049244;28;20090;-70
2023/03/12 09:29:59;;;;;;;1.95;1.70;;;;;;;12.92;100.00;99155.63;5050428;28;20463;-71
2023/03/12 09:32:26;;;;;;;3.03;1.80;;;;;;;12.90;100.00;99184.66;5050509;28;20132;-70
2023/03/12 09:34:51;;;;;;;3.08;2.20;;;;;;;13.24;100.00;99202.50;5050796;28;20056;-71
2023/03/12 09:37:17;;;;;;;2.83;1.80;;;;;;;12.24;100.00;99201.50;5050480;28;20119;-71
2023/03/12 09:39:42;;;;;;;5.88;2.53;;;;;;;12.54;100.00;99252.78;5049687;28;20044;-72
2023/03/12 09:42:24;;;;;;;6.35;3.55;;;;;;;12.48;100.00;99219.94;5050842;28;20021;-71
2023/03/12 09:44:51;;;;;;;4.28;3.40;;;;;;;13.73;100.00;99270.56;5050873;28;20108;-71
2023/03/12 09:47:35;;;;;;;5.95;3.33;;;;;;;13.04;100.00;99220.56;5050520;28;20036;-72
2023/03/12 09:50:07;;;;;;;5.03;3.00;;;;;;;13.84;100.00;99235.03;5048916;28;20431;-70
2023/03/12 09:52:38;;;;;;;;;;;;;;;12.66;100.00;99333.78;5051095;28;20033;-71
2023/03/12 09:55:17;;;;;;;2.55;2.30;;;;;;;13.77;100.00;99346.16;5050317;28;20060;-71
2023/03/12 09:57:45;;;;;;;4.50;2.20;;;;;;;13.66;100.00;99376.53;5049404;28;20033;-71
2023/03/12 10:00:16;;;;;;;5.85;2.22;;;;;;;13.48;100.00;99384.28;5050483;28;20037;-70
2023/03/12 10:02:41;;;;;;;3.20;1.80;;;;;;;13.89;100.00;99399.19;5050671;28;20025;-72
2023/03/12 10:05:33;;;;;;;5.65;1.80;;;;;;;14.06;100.00;99417.94;5050799;28;20037;-72
2023/03/12 10:08:15;;;;;;;2.25;1.60;;;;;;;12.62;100.00;99455.50;5083082;28;20033;-72
2023/03/12 10:11:14;;;;;;;5.13;1.88;;;;;;;13.27;100.00;99460.16;5050597;28;20120;-70
2023/03/12 10:13:52;;;;;;;2.35;1.88;;;;;;;13.92;98.88;99475.66;5050742;28;20033;-70
2023/03/12 10:16:26;;;;;;;3.05;1.52;;;;;;;13.60;96.48;99486.66;5050155;28;20036;-71
2023/03/12 10:18:54;;;;;;;3.53;1.80;;;;;;;13.76;94.68;99509.72;5050536;28;20150;-71
2023/03/12 10:21:37;;;;;;;3.35;1.85;;;;;;;14.33;94.19;99506.88;5050509;28;20033;-71
2023/03/12 10:24:07;;;;;;;5.57;1.75;;;;;;;14.16;93.32;99513.72;5035458;28;20033;-72
2023/03/12 10:26:44;;;;;;;1.90;1.50;;;;;;;13.91;90.39;99494.47;5033022;28;20056;-71
2023/03/12 10:29:19;;;;;;;3.20;1.55;;;;;;;13.33;91.47;99499.91;5029890;28;20033;-71
2023/03/12 10:31:53;;;;;;;3.30;1.67;;;;;;;13.52;90.04;99503.25;5031219;28;20080;-74
2023/03/12 10:34:41;;;;;;;1.92;1.48;;;;;;;14.10;89.24;99526.81;5042948;28;20048;-73
2023/03/12 10:37:27;;;;;;;4.25;1.30;;;;;;;14.23;87.29;99569.56;5054865;28;20056;-74
2023/03/12 10:39:54;;;;;;;3.65;1.60;;;;;;;13.99;85.74;99537.53;5052866;28;20028;-74
2023/03/12 10:42:25;;;;;;;2.10;1.50;;;;;;;14.27;87.82;99514.00;5038618;28;20033;-72
2023/03/12 10:44:55;;;;;;;2.23;1.60;;;;;;;14.64;84.62;99537.66;5034947;28;20033;-74
2023/03/12 10:47:34;;;;;;;3.03;1.75;;;;;;;14.33;85.96;99580.19;5034074;28;20272;-72
2023/03/12 10:50:31;;;;;;;3.13;1.60;;;;;;;13.87;86.11;99595.19;5034262;28;20059;-72
2023/03/12 10:53:30;;;;;;;2.63;1.60;;;;;;;14.90;86.09;99599.44;5032973;28;20456;-72
2023/03/12 10:56:10;;;;;;;3.72;1.67;;;;;;;13.12;84.63;99613.19;5034408;28;20095;-72
2023/03/12 10:58:41;;;;;;;4.18;1.77;;;;;;;13.84;85.44;99574.88;5034135;28;20067;-70
2023/03/12 11:01:19;;;;;;;2.17;1.27;;;;;;;15.71;82.41;99574.56;5033763;28;20088;-69
2023/03/12 11:03:45;;;;;;;3.63;1.67;;;;;;;14.15;81.90;99579.34;5033924;28;20030;-72
2023/03/12 11:06:21;;;;;;;2.67;2.00;;;;;;;13.26;80.81;99585.31;5032056;28;20029;-71
2023/03/12 11:09:06;;;;;;;3.97;2.38;;;;;;;12.79;85.41;99575.47;5034215;28;20037;-71
2023/03/12 11:11:33;;;;;;;2.78;2.00;;;;;;;13.37;83.53;99640.09;5033746;28;20026;-69
2023/03/12 11:14:16;;;;;;;2.58;1.75;;;;;;;13.26;84.12;99605.75;5033877;28;20041;-72
2023/03/12 11:16:42;;;;;;;2.33;1.45;;;;;;;13.31;84.47;99583.41;5033905;28;20033;-72
2023/03/12 11:19:12;;;;;;;2.72;1.42;;;;;;;13.85;86.39;99591.88;5032884;28;20099;-73
2023/03/12 11:21:39;;;;;;;7.38;1.90;;;;;;;13.55;88.75;99629.06;5032700;28;20091;-72
2023/03/12 11:24:12;;;;;;;5.03;2.13;;;;;;;12.50;88.77;99596.28;5033710;28;20025;-72
2023/03/12 11:26:46;;;;;;;2.60;1.90;;;;;;;13.03;91.47;99634.81;5033678;28;20124;-72
2023/03/12 11:29:30;;;;;;;3.00;2.10;;;;;;;13.29;89.88;99623.50;5045468;28;20033;-72
2023/03/12 11:32:01;;;;;;;9.10;5.20;;;;;;;13.57;87.82;99632.38;5052057;28;20025;-70
2023/03/12 11:34:30;;;;;;;5.68;2.78;;;;;;;13.13;86.62;99653.97;5052977;28;20028;-70